Terminal Aerodrome Forecast
Issued by NWS

Home | Current Version | Previous Version | Text Only | Print | Product List | Glossary On
Versions: 1 2 3 4 5 6 7 8 9 10 11 12 13 14 15 16 17 18
599
FTUS43 KIND 131720
TAFLAF
TAF
KLAF 131720Z 1318/1418 34009KT P6SM FEW040 SCT250
     FM132300 VRB03KT P6SM BKN200
     FM140700 10006KT P6SM SCT040 OVC080
     FM141100 13010KT 4SM -SN BR OVC025=

USA.gov is the U.S. government's official web portal to all federal, state and local government web resources and services.